Time;durP1;ratioP1;P1;durP2;ratioP2;P2;SDS_P1;SDS_P2;PMS_P1;PMS_P2;Temp;Humidity;BMP_temperature;BMP_pressure;BME280_temperature;BME280_humidity;BME280_pressure;Samples;Min_cycle;Max_cycle;Signal;HPM_P1;HPM_P2
2022/09/22 00:02:18;;;;;;;0.38;0.20;;;23.70;42.50;;;;;;6157034;28;20888;-60
2022/09/22 00:05:20;;;;;;;0.28;0.20;;;23.40;42.40;;;;;;6162203;28;21033;-59
2022/09/22 00:08:22;;;;;;;0.10;0.10;;;23.60;42.50;;;;;;6159520;28;20077;-60
2022/09/22 00:11:27;;;;;;;0.75;0.20;;;23.70;42.60;;;;;;6162407;28;20184;-59
2022/09/22 00:14:29;;;;;;;0.40;0.20;;;23.70;42.60;;;;;;6160464;28;20045;-60
2022/09/22 00:17:30;;;;;;;0.20;0.20;;;23.60;42.60;;;;;;6159342;28;20093;-60
2022/09/22 00:20:32;;;;;;;0.50;0.30;;;23.50;42.60;;;;;;6160299;28;20107;-61
2022/09/22 00:23:34;;;;;;;;;;;23.80;42.70;;;;;;6155171;28;20038;-61
2022/09/22 00:26:37;;;;;;;0.40;0.30;;;23.60;42.60;;;;;;6138015;28;20036;-60
2022/09/22 00:29:38;;;;;;;0.20;0.20;;;23.60;42.60;;;;;;6157198;28;20157;-60
2022/09/22 00:32:39;;;;;;;;;;;23.20;42.50;;;;;;6162620;28;21060;-60
2022/09/22 00:35:41;;;;;;;0.40;0.30;;;23.80;42.80;;;;;;6158252;28;19930;-60
2022/09/22 00:38:44;;;;;;;0.20;0.20;;;23.80;42.80;;;;;;6156096;28;20137;-61
2022/09/22 00:41:47;;;;;;;0.25;0.25;;;23.60;42.80;;;;;;6142245;28;20041;-60
2022/09/22 00:44:49;;;;;;;0.30;0.30;;;23.60;42.80;;;;;;6140032;28;20160;-60
2022/09/22 00:47:51;;;;;;;0.25;0.22;;;23.40;42.70;;;;;;6157472;28;20042;-58
2022/09/22 00:50:55;;;;;;;0.20;0.20;;;23.50;42.80;;;;;;6160048;28;20068;-60
2022/09/22 00:53:59;;;;;;;0.40;0.40;;;23.50;42.80;;;;;;6148433;28;20053;-60
2022/09/22 00:57:05;;;;;;;0.20;0.20;;;23.60;42.90;;;;;;6141644;28;20141;-60
2022/09/22 01:00:09;;;;;;;0.40;0.30;;;23.60;42.80;;;;;;6165584;28;20108;-60
2022/09/22 01:03:13;;;;;;;0.22;0.22;;;23.60;42.90;;;;;;6165310;28;20050;-60
2022/09/22 01:06:19;;;;;;;0.28;0.22;;;23.60;42.90;;;;;;6163950;28;20040;-59
2022/09/22 01:09:22;;;;;;;0.52;0.30;;;23.40;42.80;;;;;;6139901;28;20590;-58
2022/09/22 01:12:26;;;;;;;0.70;0.40;;;23.50;42.80;;;;;;6159478;28;20460;-60
2022/09/22 01:15:35;;;;;;;0.20;0.20;;;23.50;42.80;;;;;;6139292;28;20524;-59
2022/09/22 01:18:48;;;;;;;0.30;0.20;;;23.60;43.00;;;;;;6155276;28;20140;-56
2022/09/22 01:21:58;;;;;;;0.20;0.20;;;23.30;42.80;;;;;;6156339;28;20038;-57
2022/09/22 01:25:21;;;;;;;0.60;0.30;;;23.10;42.70;;;;;;6143764;28;20837;-59
2022/09/22 01:28:41;;;;;;;0.38;0.30;;;23.60;43.00;;;;;;6157172;28;20850;-60
2022/09/22 01:31:51;;;;;;;0.20;0.20;;;23.50;43.00;;;;;;6154546;28;20054;-60
2022/09/22 01:35:01;;;;;;;0.32;0.30;;;23.50;43.00;;;;;;6159771;28;20084;-58
2022/09/22 01:38:10;;;;;;;0.65;0.52;;;23.40;43.00;;;;;;6140318;28;20131;-60
2022/09/22 01:41:19;;;;;;;0.30;0.25;;;23.60;43.10;;;;;;6157254;28;20392;-59
2022/09/22 01:44:27;;;;;;;0.20;0.20;;;23.20;42.80;;;;;;6159394;28;20376;-60
2022/09/22 01:47:35;;;;;;;0.25;0.20;;;23.50;43.00;;;;;;6152218;28;20410;-60
2022/09/22 01:50:41;;;;;;;0.22;0.22;;;23.40;43.00;;;;;;6161394;28;20117;-58
2022/09/22 01:53:47;;;;;;;0.20;0.20;;;23.40;43.00;;;;;;6158765;28;20155;-59
2022/09/22 01:56:54;;;;;;;0.30;0.22;;;23.20;43.00;;;;;;6158694;28;20210;-60
2022/09/22 02:00:02;;;;;;;0.32;0.20;;;23.30;43.00;;;;;;6159315;28;21023;-59
2022/09/22 02:03:18;;;;;;;0.30;0.30;;;23.40;43.00;;;;;;6156248;28;20361;-59
2022/09/22 02:06:24;;;;;;;0.30;0.28;;;23.00;42.80;;;;;;6151267;28;20035;-59
2022/09/22 02:09:34;;;;;;;0.25;0.20;;;23.20;42.90;;;;;;6154913;28;20904;-60
2022/09/22 02:12:36;;;;;;;0.55;0.20;;;23.50;43.10;;;;;;6153002;28;20089;-58
2022/09/22 02:19:01;;;;;;;0.20;0.10;;;23.30;43.00;;;;;;6153430;28;20041;-60
2022/09/22 02:22:14;;;;;;;0.10;0.10;;;23.20;43.00;;;;;;6157265;28;20107;-59
2022/09/22 02:25:15;;;;;;;;;;;23.50;43.10;;;;;;6158779;28;20048;-59
2022/09/22 02:28:19;;;;;;;0.50;0.20;;;23.20;43.10;;;;;;6154751;28;20395;-55
2022/09/22 02:31:23;;;;;;;0.35;0.20;;;23.00;42.90;;;;;;6154316;28;20148;-59
2022/09/22 02:34:25;;;;;;;0.10;0.10;;;23.30;43.10;;;;;;6155505;28;20471;-60
2022/09/22 02:37:35;;;;;;;0.45;0.25;;;23.20;43.00;;;;;;6156969;28;20121;-60
2022/09/22 02:40:43;;;;;;;0.50;0.35;;;23.30;43.10;;;;;;6162646;28;20080;-60
2022/09/22 02:43:49;;;;;;;0.20;0.20;;;23.30;43.00;;;;;;6141469;28;20034;-60
2022/09/22 02:46:56;;;;;;;0.30;0.30;;;23.00;42.90;;;;;;6140694;28;20110;-60
2022/09/22 02:50:01;;;;;;;0.40;0.30;;;22.80;42.80;;;;;;6154346;28;20589;-59
2022/09/22 02:53:09;;;;;;;0.55;0.20;;;23.00;42.90;;;;;;6128161;28;20054;-60
2022/09/22 02:56:11;;;;;;;0.47;0.38;;;23.00;42.90;;;;;;6129291;28;20425;-60
2022/09/22 02:59:12;;;;;;;0.32;0.30;;;23.40;43.10;;;;;;6137509;28;20108;-56
2022/09/22 03:02:14;;;;;;;0.40;0.20;;;23.30;43.10;;;;;;6152118;28;20445;-60
2022/09/22 03:05:16;;;;;;;;;;;23.10;43.00;;;;;;6152144;28;20591;-60
2022/09/22 03:08:17;;;;;;;0.38;0.20;;;23.30;43.10;;;;;;6142998;28;20304;-56
2022/09/22 03:11:22;;;;;;;0.25;0.20;;;23.30;43.10;;;;;;6147115;28;20046;-59
2022/09/22 03:14:24;;;;;;;0.20;0.20;;;23.30;43.20;;;;;;6147697;28;20049;-60
2022/09/22 03:17:25;;;;;;;1.17;0.30;;;23.10;43.00;;;;;;6152382;28;20771;-56
2022/09/22 03:20:28;;;;;;;0.50;0.35;;;23.20;43.20;;;;;;6150334;28;20057;-57
2022/09/22 03:23:29;;;;;;;0.70;0.20;;;23.00;43.20;;;;;;6145204;28;20409;-55
2022/09/22 03:26:30;;;;;;;;;;;23.20;43.40;;;;;;6146919;28;20129;-54
2022/09/22 03:29:32;;;;;;;2.22;0.25;;;23.10;43.50;;;;;;6149178;28;20277;-59
2022/09/22 03:32:34;;;;;;;1.20;0.50;;;23.10;43.40;;;;;;6152986;28;20635;-60
2022/09/22 03:35:36;;;;;;;0.38;0.13;;;23.10;43.40;;;;;;6155093;28;20600;-60
2022/09/22 03:38:37;;;;;;;0.82;0.55;;;22.80;43.30;;;;;;6153346;28;20064;-60
2022/09/22 03:41:42;;;;;;;0.80;0.20;;;23.30;43.60;;;;;;6148840;28;20609;-60
2022/09/22 03:44:46;;;;;;;0.57;0.38;;;22.90;43.40;;;;;;6151301;28;20600;-58
2022/09/22 03:47:48;;;;;;;0.30;0.17;;;23.80;43.80;;;;;;6154988;28;20045;-60
2022/09/22 03:50:50;;;;;;;;;;;23.20;43.40;;;;;;6154854;28;20883;-59
2022/09/22 03:53:53;;;;;;;0.20;0.20;;;23.20;43.50;;;;;;6153986;28;20036;-61
2022/09/22 03:56:54;;;;;;;0.50;0.30;;;23.10;43.40;;;;;;6154414;28;20316;-60
2022/09/22 03:59:55;;;;;;;;;;;23.40;43.60;;;;;;6151978;28;20408;-61
2022/09/22 04:02:57;;;;;;;0.80;0.30;;;23.00;43.40;;;;;;6150798;28;20138;-60
2022/09/22 04:05:59;;;;;;;0.20;0.20;;;23.00;43.40;;;;;;6153685;28;20528;-60
2022/09/22 04:09:01;;;;;;;0.47;0.30;;;22.80;43.20;;;;;;6155240;28;20160;-59
2022/09/22 04:12:07;;;;;;;0.40;0.30;;;23.30;43.50;;;;;;6153736;28;20416;-60
2022/09/22 04:15:09;;;;;;;0.28;0.20;;;22.80;43.20;;;;;;6152910;28;20679;-60
2022/09/22 04:18:13;;;;;;;0.80;0.30;;;23.20;43.50;;;;;;6147758;28;20145;-59
2022/09/22 04:21:15;;;;;;;0.40;0.32;;;23.20;43.40;;;;;;6123531;28;20569;-60
2022/09/22 04:24:16;;;;;;;0.20;0.17;;;23.00;43.30;;;;;;6149172;28;20069;-58
2022/09/22 04:27:17;;;;;;;;;;;22.90;43.30;;;;;;6146648;28;20160;-60
2022/09/22 04:30:22;;;;;;;0.63;0.30;;;23.20;43.60;;;;;;6147075;28;20393;-60
2022/09/22 04:33:23;;;;;;;;;;;23.10;43.40;;;;;;6151959;28;20073;-60
2022/09/22 04:36:25;;;;;;;;;;;23.30;43.60;;;;;;6125414;28;20243;-60
2022/09/22 04:39:27;;;;;;;0.25;0.20;;;22.90;43.30;;;;;;6149836;28;20405;-60
2022/09/22 04:42:32;;;;;;;0.47;0.30;;;22.70;43.20;;;;;;6147389;28;20120;-60
2022/09/22 04:45:33;;;;;;;0.40;0.30;;;22.90;43.40;;;;;;6145800;28;20050;-61
2022/09/22 04:48:40;;;;;;;0.30;0.20;;;23.00;43.40;;;;;;6142374;28;21225;-60
2022/09/22 04:51:42;;;;;;;;;;;23.10;43.50;;;;;;6141617;28;20101;-61
2022/09/22 04:54:43;;;;;;;0.35;0.30;;;23.00;43.50;;;;;;6141481;28;20146;-61
2022/09/22 04:57:46;;;;;;;;;;;23.10;43.50;;;;;;6141779;28;20127;-60
2022/09/22 05:00:48;;;;;;;0.50;0.30;;;23.00;43.50;;;;;;6142848;28;20060;-60
2022/09/22 05:03:52;;;;;;;0.25;0.25;;;22.90;43.40;;;;;;6142852;28;20903;-59
2022/09/22 05:06:54;;;;;;;0.40;0.30;;;22.90;43.40;;;;;;6136525;28;20153;-60
2022/09/22 05:09:56;;;;;;;0.47;0.22;;;22.90;43.50;;;;;;6140389;28;20967;-58
2022/09/22 05:13:00;;;;;;;0.20;0.20;;;22.60;43.30;;;;;;6145893;28;20050;-58
2022/09/22 05:16:04;;;;;;;0.30;0.30;;;22.50;43.20;;;;;;6128098;28;20451;-60
2022/09/22 05:19:05;;;;;;;0.60;0.30;;;23.00;43.50;;;;;;6135358;28;20046;-60
2022/09/22 05:22:08;;;;;;;0.30;0.30;;;22.60;43.30;;;;;;6141862;28;21030;-61
2022/09/22 05:25:12;;;;;;;0.50;0.30;;;22.70;43.40;;;;;;6148944;28;20046;-60
2022/09/22 05:28:13;;;;;;;0.20;0.20;;;22.70;43.30;;;;;;6133140;28;21029;-60
2022/09/22 05:31:15;;;;;;;;;;;22.70;43.40;;;;;;6140349;28;20365;-60
2022/09/22 05:34:16;;;;;;;0.20;0.17;;;22.80;43.50;;;;;;6140191;28;19959;-60
2022/09/22 05:37:18;;;;;;;0.20;0.20;;;22.80;43.40;;;;;;6145595;28;20184;-61
2022/09/22 05:40:22;;;;;;;0.40;0.30;;;22.80;43.40;;;;;;6155997;28;20045;-60
2022/09/22 05:43:24;;;;;;;0.57;0.28;;;22.80;43.40;;;;;;6152097;28;20050;-60
2022/09/22 05:46:26;;;;;;;0.70;0.28;;;23.00;43.60;;;;;;6144728;28;20163;-59
2022/09/22 05:49:27;;;;;;;0.30;0.20;;;22.80;43.50;;;;;;6134666;28;20231;-61
2022/09/22 05:52:29;;;;;;;0.40;0.35;;;22.70;43.40;;;;;;6136276;28;20164;-60
2022/09/22 05:55:31;;;;;;;0.68;0.50;;;22.80;43.40;;;;;;6140163;28;20038;-61
2022/09/22 05:58:33;;;;;;;0.63;0.52;;;22.70;43.50;;;;;;6141357;28;20046;-61
2022/09/22 06:01:34;;;;;;;0.50;0.30;;;22.70;43.40;;;;;;6129563;28;20046;-60
2022/09/22 06:04:37;;;;;;;0.47;0.40;;;23.00;43.60;;;;;;6139225;28;21268;-61
2022/09/22 06:07:39;;;;;;;0.40;0.40;;;22.80;43.40;;;;;;6143242;28;20923;-61
2022/09/22 06:10:40;;;;;;;0.45;0.38;;;22.50;43.30;;;;;;6129142;28;20038;-61
2022/09/22 06:13:49;;;;;;;0.50;0.43;;;22.70;43.50;;;;;;6120998;28;20115;-62
2022/09/22 06:16:50;;;;;;;0.50;0.40;;;22.50;43.30;;;;;;6128929;28;20830;-60
2022/09/22 06:19:52;;;;;;;0.43;0.32;;;22.80;43.40;;;;;;6121316;28;20050;-61
2022/09/22 06:22:55;;;;;;;1.58;0.40;;;22.50;43.30;;;;;;6101922;28;20127;-61
2022/09/22 06:25:57;;;;;;;0.43;0.20;;;22.90;43.60;;;;;;6114273;28;20045;-61
2022/09/22 06:28:59;;;;;;;0.55;0.40;;;22.80;43.50;;;;;;6102582;28;20053;-61
2022/09/22 06:32:01;;;;;;;0.95;0.40;;;22.80;43.40;;;;;;6110433;28;21145;-61
2022/09/22 06:35:03;;;;;;;0.60;0.45;;;22.80;43.40;;;;;;6107081;28;22612;-60
2022/09/22 06:38:06;;;;;;;0.50;0.40;;;22.70;43.30;;;;;;6104779;28;20038;-61
2022/09/22 06:41:08;;;;;;;0.47;0.40;;;22.60;43.30;;;;;;6081801;28;20120;-60
2022/09/22 06:44:11;;;;;;;0.50;0.35;;;22.90;44.10;;;;;;6083548;28;20065;-61
2022/09/22 06:47:13;;;;;;;0.38;0.30;;;22.90;43.50;;;;;;6098476;28;20046;-61
2022/09/22 06:50:16;;;;;;;0.88;0.50;;;22.70;43.30;;;;;;6070073;28;20151;-61
2022/09/22 06:53:19;;;;;;;0.70;0.45;;;23.10;43.50;;;;;;6068281;28;21357;-61
2022/09/22 06:56:23;;;;;;;0.70;0.40;;;22.90;43.40;;;;;;6014754;28;20042;-61
2022/09/22 06:59:29;;;;;;;0.77;0.40;;;22.80;43.40;;;;;;6027639;28;20219;-60
2022/09/22 07:02:31;;;;;;;0.60;0.40;;;22.90;43.40;;;;;;6000179;28;20050;-60
2022/09/22 07:05:33;;;;;;;1.27;0.65;;;23.00;43.50;;;;;;6002372;28;20073;-59
2022/09/22 07:08:38;;;;;;;0.57;0.52;;;23.00;43.40;;;;;;5926371;28;20505;-61
2022/09/22 07:11:39;;;;;;;0.93;0.65;;;22.70;43.40;;;;;;5941582;28;20042;-61
2022/09/22 07:14:43;;;;;;;0.80;0.50;;;22.90;43.50;;;;;;5917790;28;20045;-60
2022/09/22 07:17:46;;;;;;;0.60;0.60;;;22.90;43.60;;;;;;5917648;28;20122;-61
2022/09/22 07:20:49;;;;;;;0.68;0.47;;;23.10;43.80;;;;;;5952398;28;20132;-60
2022/09/22 07:23:54;;;;;;;0.60;0.50;;;22.80;43.80;;;;;;5942907;28;20113;-60
2022/09/22 07:26:55;;;;;;;0.60;0.40;;;23.00;43.80;;;;;;5904523;28;20046;-60
2022/09/22 07:29:57;;;;;;;0.57;0.40;;;23.00;43.70;;;;;;5867010;28;20060;-61
2022/09/22 07:33:00;;;;;;;0.40;0.40;;;23.00;43.80;;;;;;5859314;28;22055;-59
2022/09/22 07:36:04;;;;;;;1.92;0.95;;;23.00;43.70;;;;;;5846545;28;20048;-59
2022/09/22 07:39:09;;;;;;;0.40;0.40;;;23.10;43.80;;;;;;5862865;28;20563;-59
2022/09/22 07:42:11;;;;;;;0.45;0.30;;;22.90;43.60;;;;;;5892128;28;20049;-62
2022/09/22 07:45:13;;;;;;;0.82;0.57;;;23.40;43.70;;;;;;5908468;28;20049;-61
2022/09/22 07:51:32;;;;;;;0.35;0.35;;;23.20;43.70;;;;;;5912094;28;20039;-61
2022/09/22 07:54:35;;;;;;;0.70;0.40;;;23.10;43.40;;;;;;5886371;28;20071;-60
2022/09/22 07:57:37;;;;;;;0.68;0.38;;;23.30;42.80;;;;;;5813424;28;20296;-60
2022/09/22 08:00:39;;;;;;;0.40;0.20;;;23.20;43.30;;;;;;5841916;28;20046;-62
2022/09/22 08:03:42;;;;;;;1.80;0.40;;;23.50;43.30;;;;;;5859889;28;21193;-59
2022/09/22 08:06:46;;;;;;;0.38;0.30;;;23.30;43.30;;;;;;5826102;28;21694;-57
2022/09/22 08:09:48;;;;;;;0.35;0.20;;;23.40;43.10;;;;;;5831816;28;20057;-56
2022/09/22 08:12:51;;;;;;;0.45;0.28;;;23.40;43.00;;;;;;5912254;28;20042;-56
2022/09/22 08:15:55;;;;;;;0.22;0.20;;;23.20;42.60;;;;;;5859423;28;20088;-56
2022/09/22 08:18:57;;;;;;;0.40;0.35;;;23.30;42.60;;;;;;5893864;28;23671;-57
2022/09/22 08:21:59;;;;;;;0.30;0.30;;;23.40;42.60;;;;;;5909885;28;20046;-59
2022/09/22 08:25:03;;;;;;;0.22;0.17;;;23.40;42.40;;;;;;5923438;28;20078;-59
2022/09/22 08:28:05;;;;;;;0.65;0.30;;;23.40;42.40;;;;;;5903493;28;20176;-58
2022/09/22 08:31:12;;;;;;;5.32;0.40;;;23.30;42.20;;;;;;5894748;28;20054;-48
2022/09/22 08:34:15;;;;;;;0.20;0.20;;;23.40;42.10;;;;;;5877297;28;20046;-48
2022/09/22 08:37:16;;;;;;;0.20;0.20;;;23.50;42.20;;;;;;5850217;28;20042;-55
2022/09/22 08:40:22;;;;;;;0.30;0.30;;;23.50;42.10;;;;;;5891981;28;20164;-55
2022/09/22 08:43:24;;;;;;;0.32;0.30;;;23.50;42.00;;;;;;5890801;28;20300;-55
2022/09/22 08:46:29;;;;;;;0.38;0.38;;;23.40;41.90;;;;;;5889390;28;20049;-55
2022/09/22 08:52:54;;;;;;;0.60;0.30;;;23.70;42.00;;;;;;5907541;28;20093;-57
2022/09/22 08:56:04;;;;;;;1.08;0.32;;;23.50;41.80;;;;;;5894116;28;20764;-58
2022/09/22 08:59:13;;;;;;;0.30;0.20;;;23.70;42.00;;;;;;5883357;28;20073;-56
2022/09/22 09:02:36;;;;;;;0.28;0.20;;;23.50;41.70;;;;;;5877745;28;20905;-55
2022/09/22 09:06:00;;;;;;;0.30;0.20;;;23.70;42.30;;;;;;5890909;28;20046;-56
2022/09/22 09:09:29;;;;;;;0.57;0.28;;;23.70;41.70;;;;;;5912611;28;22485;-54
2022/09/22 09:13:01;;;;;;;0.28;0.28;;;23.50;41.50;;;;;;5890314;28;22534;-56
2022/09/22 09:16:19;;;;;;;0.35;0.20;;;23.70;41.50;;;;;;5886338;28;20210;-57
2022/09/22 09:19:31;;;;;;;0.43;0.20;;;23.60;41.40;;;;;;5890688;28;20460;-57
2022/09/22 09:22:39;;;;;;;0.75;0.30;;;23.60;41.40;;;;;;5891423;28;21908;-55
2022/09/22 09:25:42;;;;;;;0.30;0.22;;;23.90;41.60;;;;;;5914947;28;21027;-51
2022/09/22 09:28:49;;;;;;;1.52;0.30;;;23.90;41.60;;;;;;5917120;28;21302;-49
2022/09/22 09:31:54;;;;;;;0.20;0.17;;;23.80;41.50;;;;;;5902601;28;20869;-51
2022/09/22 09:34:55;;;;;;;0.60;0.30;;;23.80;41.40;;;;;;5910929;28;23070;-53
2022/09/22 09:38:00;;;;;;;0.30;0.20;;;23.90;41.40;;;;;;5890574;28;20041;-51
2022/09/22 09:41:11;;;;;;;0.40;0.20;;;23.80;41.30;;;;;;5877870;28;20119;-52
2022/09/22 09:44:25;;;;;;;0.52;0.40;;;23.90;41.30;;;;;;5893821;28;20038;-54
2022/09/22 09:47:46;;;;;;;0.40;0.25;;;23.90;41.30;;;;;;5864721;28;20108;-53
2022/09/22 09:50:48;;;;;;;0.20;0.10;;;24.00;41.10;;;;;;5880599;28;20053;-51
2022/09/22 09:53:50;;;;;;;0.20;0.20;;;23.70;40.90;;;;;;5864409;28;21030;-52
2022/09/22 09:57:06;;;;;;;0.20;0.20;;;23.90;40.90;;;;;;5897603;28;25335;-54
2022/09/22 10:03:33;;;;;;;0.20;0.20;;;24.00;40.80;;;;;;5877399;28;20060;-56
2022/09/22 10:06:35;;;;;;;0.10;0.10;;;23.90;40.60;;;;;;5893415;28;20076;-57
2022/09/22 10:09:36;;;;;;;1.08;0.30;;;24.00;40.30;;;;;;5879902;28;20099;-56
2022/09/22 10:12:38;;;;;;;0.10;0.10;;;24.10;40.20;;;;;;5910265;28;20121;-54
2022/09/22 10:15:42;;;;;;;0.10;0.10;;;23.90;40.00;;;;;;5901388;28;20050;-55
2022/09/22 10:18:43;;;;;;;0.85;0.15;;;23.50;39.60;;;;;;5936432;28;20054;-56
2022/09/22 10:21:48;;;;;;;0.65;0.28;;;24.00;39.70;;;;;;5960569;28;20050;-56
2022/09/22 10:24:55;;;;;;;0.57;0.30;;;23.90;39.50;;;;;;5975115;28;20168;-55
2022/09/22 10:28:00;;;;;;;0.25;0.20;;;23.80;39.30;;;;;;5979865;28;21051;-60
2022/09/22 10:31:03;;;;;;;0.30;0.28;;;24.10;39.40;;;;;;5985517;28;20049;-59
2022/09/22 10:34:24;;;;;;;0.30;0.30;;;24.00;39.20;;;;;;6009801;28;20423;-58
2022/09/22 10:37:27;;;;;;;0.43;0.10;;;24.10;39.10;;;;;;6016641;28;20156;-59
2022/09/22 10:40:30;;;;;;;0.57;0.30;;;24.00;38.90;;;;;;6025734;28;20125;-60
2022/09/22 10:43:39;;;;;;;0.93;0.30;;;24.10;38.80;;;;;;6048293;28;20045;-60
2022/09/22 10:46:57;;;;;;;0.63;0.10;;;24.10;38.70;;;;;;6034140;28;20045;-59
2022/09/22 10:50:28;;;;;;;0.13;0.13;;;24.10;38.60;;;;;;6049390;28;20412;-59
2022/09/22 10:53:43;;;;;;;0.20;0.17;;;24.10;38.40;;;;;;6073089;28;20050;-59
2022/09/22 10:56:50;;;;;;;0.40;0.28;;;23.90;38.40;;;;;;6055199;28;20368;-59
2022/09/22 11:00:08;;;;;;;0.50;0.30;;;24.10;38.50;;;;;;6035550;28;20052;-59
2022/09/22 11:03:41;;;;;;;0.38;0.30;;;24.10;38.40;;;;;;6037558;28;20639;-60
2022/09/22 11:13:57;;;;;;;0.52;0.32;;;24.20;38.40;;;;;;6070370;28;20046;-60
2022/09/22 11:17:16;;;;;;;1.13;0.20;;;24.30;38.50;;;;;;6053157;28;20068;-61
2022/09/22 11:20:31;;;;;;;0.73;0.20;;;23.90;38.30;;;;;;6033873;28;20050;-60
2022/09/22 11:23:59;;;;;;;0.40;0.20;;;24.40;38.70;;;;;;6059358;28;20041;-58
2022/09/22 11:27:01;;;;;;;1.23;0.30;;;24.30;38.70;;;;;;6037654;28;20601;-58
2022/09/22 11:30:19;;;;;;;0.75;0.30;;;24.30;38.70;;;;;;6014693;28;20057;-56
2022/09/22 11:33:43;;;;;;;0.32;0.30;;;24.30;38.60;;;;;;6038897;28;20088;-58
2022/09/22 11:36:54;;;;;;;0.20;0.20;;;24.30;38.60;;;;;;6008704;28;20061;-58
2022/09/22 11:40:18;;;;;;;0.87;0.30;;;24.40;38.90;;;;;;6004917;28;21459;-59
2022/09/22 11:43:39;;;;;;;0.35;0.20;;;24.30;38.50;;;;;;6002614;28;20083;-60
2022/09/22 11:46:54;;;;;;;0.80;0.38;;;24.40;38.60;;;;;;6000328;28;20065;-60
2022/09/22 11:50:18;;;;;;;0.30;0.20;;;24.60;38.50;;;;;;5979523;28;20077;-59
2022/09/22 11:53:39;;;;;;;0.52;0.30;;;24.20;38.20;;;;;;5978006;28;20053;-61
2022/09/22 11:56:44;;;;;;;1.03;0.20;;;24.50;38.30;;;;;;5982306;28;20038;-58
2022/09/22 11:59:52;;;;;;;1.55;0.30;;;24.50;38.40;;;;;;5935443;28;20053;-59
2022/09/22 12:02:57;;;;;;;0.68;0.30;;;24.50;38.40;;;;;;5903879;28;23591;-59
2022/09/22 12:06:07;;;;;;;1.67;0.30;;;24.60;38.40;;;;;;5870518;28;26368;-60
2022/09/22 12:09:13;;;;;;;0.60;0.30;;;24.40;38.30;;;;;;5893904;28;20137;-59
2022/09/22 12:12:18;;;;;;;0.30;0.30;;;24.50;38.40;;;;;;5877547;28;21624;-59
2022/09/22 12:15:27;;;;;;;0.70;0.40;;;24.50;38.40;;;;;;5891024;28;20596;-59
2022/09/22 12:18:38;;;;;;;0.57;0.20;;;24.50;38.40;;;;;;5873231;28;20763;-59
2022/09/22 12:21:48;;;;;;;0.70;0.33;;;24.60;38.40;;;;;;5921499;28;20268;-59
2022/09/22 12:24:49;;;;;;;0.88;0.20;;;24.60;38.40;;;;;;5929352;28;20038;-60
2022/09/22 12:27:57;;;;;;;0.40;0.35;;;24.70;38.50;;;;;;5918258;28;20049;-60
2022/09/22 12:31:04;;;;;;;0.30;0.30;;;24.60;38.40;;;;;;5888109;28;20056;-57
2022/09/22 12:34:18;;;;;;;0.55;0.30;;;24.70;38.30;;;;;;5874884;28;20046;-60
2022/09/22 12:37:28;;;;;;;0.63;0.50;;;24.60;38.20;;;;;;5893453;28;20973;-59
2022/09/22 12:40:34;;;;;;;0.30;0.20;;;24.50;38.20;;;;;;5876736;28;20247;-58
2022/09/22 12:43:36;;;;;;;1.92;0.50;;;24.60;38.30;;;;;;5901405;28;20878;-48
2022/09/22 12:46:42;;;;;;;0.15;0.10;;;24.70;38.30;;;;;;5884666;28;20042;-50
2022/09/22 12:49:48;;;;;;;0.52;0.38;;;24.70;38.30;;;;;;5887209;28;20038;-51
2022/09/22 12:53:02;;;;;;;0.65;0.30;;;24.60;38.20;;;;;;5857573;28;20103;-51
2022/09/22 12:56:41;;;;;;;0.88;0.32;;;24.60;38.10;;;;;;5916601;28;20050;-52
2022/09/22 12:59:55;;;;;;;0.57;0.47;;;24.80;38.30;;;;;;5883791;28;22263;-52
2022/09/22 13:02:57;;;;;;;0.50;0.30;;;24.80;38.20;;;;;;5868613;28;26362;-49
2022/09/22 13:06:02;;;;;;;0.30;0.28;;;24.80;38.20;;;;;;5885123;28;20077;-53
2022/09/22 13:09:17;;;;;;;0.30;0.20;;;24.90;38.30;;;;;;5862733;28;20050;-52
2022/09/22 13:12:26;;;;;;;0.40;0.30;;;24.90;38.20;;;;;;5821673;28;20046;-55
2022/09/22 13:15:30;;;;;;;0.57;0.20;;;24.90;38.30;;;;;;5823954;28;20046;-54
2022/09/22 13:18:35;;;;;;;1.05;0.30;;;24.90;38.20;;;;;;5850972;28;21441;-50
2022/09/22 13:21:38;;;;;;;1.25;0.40;;;24.90;38.20;;;;;;5854289;28;20050;-51
2022/09/22 13:24:40;;;;;;;5.43;0.60;;;24.70;38.00;;;;;;5873316;28;21406;-52
2022/09/22 13:27:43;;;;;;;0.85;0.52;;;24.70;38.00;;;;;;5873787;28;20053;-57
2022/09/22 13:30:57;;;;;;;0.55;0.35;;;24.90;38.20;;;;;;5868514;28;20042;-57
2022/09/22 13:34:15;;;;;;;0.65;0.35;;;25.00;38.20;;;;;;5857233;28;20720;-56
2022/09/22 13:37:20;;;;;;;0.65;0.13;;;25.00;38.30;;;;;;5852846;28;20054;-55
2022/09/22 13:40:26;;;;;;;0.60;0.20;;;25.00;38.10;;;;;;5841978;28;20659;-56
2022/09/22 13:43:32;;;;;;;0.35;0.20;;;25.00;38.00;;;;;;5882641;28;21730;-58
2022/09/22 13:46:39;;;;;;;0.30;0.28;;;25.00;38.00;;;;;;5827288;28;20093;-58
2022/09/22 13:49:44;;;;;;;0.40;0.30;;;25.00;38.00;;;;;;5873863;28;20169;-56
2022/09/22 13:52:47;;;;;;;0.82;0.22;;;24.90;37.90;;;;;;5873924;28;20050;-58
2022/09/22 13:55:50;;;;;;;0.20;0.20;;;25.00;38.10;;;;;;5891110;28;20135;-55
2022/09/22 13:58:56;;;;;;;0.55;0.20;;;25.00;38.20;;;;;;5875292;28;20049;-53
2022/09/22 14:02:05;;;;;;;1.58;0.38;;;24.90;38.00;;;;;;5836842;28;20045;-57
2022/09/22 14:05:16;;;;;;;0.50;0.35;;;25.00;38.10;;;;;;5822559;28;20926;-57
2022/09/22 14:08:25;;;;;;;0.47;0.10;;;25.00;38.10;;;;;;5862067;28;20044;-55
2022/09/22 14:11:30;;;;;;;0.30;0.20;;;24.90;38.20;;;;;;5858663;28;22530;-57
2022/09/22 14:14:31;;;;;;;0.28;0.20;;;24.80;38.10;;;;;;5840856;28;20887;-58
2022/09/22 14:17:35;;;;;;;0.40;0.32;;;25.00;38.10;;;;;;5886705;28;21412;-57
2022/09/22 14:20:39;;;;;;;0.50;0.10;;;25.00;38.20;;;;;;5894194;28;21294;-54
2022/09/22 14:23:44;;;;;;;0.30;0.25;;;25.00;38.20;;;;;;5893570;28;20145;-55
2022/09/22 14:26:49;;;;;;;0.30;0.20;;;25.00;38.30;;;;;;5796897;28;20042;-56
2022/09/22 14:29:52;;;;;;;0.65;0.32;;;25.10;38.30;;;;;;5861154;28;20095;-57
2022/09/22 14:32:58;;;;;;;1.20;0.20;;;25.00;38.30;;;;;;5873860;28;20171;-54
2022/09/22 14:36:03;;;;;;;0.20;0.20;;;24.90;38.90;;;;;;5889166;28;20049;-52
2022/09/22 14:39:05;;;;;;;0.30;0.20;;;25.00;38.40;;;;;;5823333;28;20050;-56
2022/09/22 14:42:20;;;;;;;0.40;0.32;;;25.00;38.50;;;;;;5828501;28;20081;-59
2022/09/22 14:45:25;;;;;;;0.40;0.20;;;25.00;38.40;;;;;;5895160;28;20261;-58
2022/09/22 14:48:31;;;;;;;0.20;0.20;;;25.00;38.40;;;;;;5883421;28;20236;-59
2022/09/22 14:51:34;;;;;;;0.35;0.20;;;24.70;38.20;;;;;;5884464;28;23511;-58
2022/09/22 14:54:38;;;;;;;0.35;0.20;;;25.00;38.40;;;;;;5889813;28;31135;-55
2022/09/22 14:57:44;;;;;;;1.60;0.13;;;24.90;38.40;;;;;;5886134;28;20050;-58
2022/09/22 15:04:16;;;;;;;0.32;0.20;;;24.90;38.50;;;;;;5845864;28;20116;-57
2022/09/22 15:07:24;;;;;;;0.30;0.20;;;24.70;39.10;;;;;;5891053;28;20046;-60
2022/09/22 15:10:28;;;;;;;0.20;0.10;;;23.60;38.00;;;;;;5848127;28;20945;-62
2022/09/22 15:13:38;;;;;;;0.30;0.20;;;25.00;38.80;;;;;;5909598;28;20040;-62
2022/09/22 15:16:42;;;;;;;0.52;0.28;;;24.90;38.80;;;;;;5877192;28;20050;-63
2022/09/22 15:19:47;;;;;;;0.88;0.20;;;24.90;38.80;;;;;;5889485;28;20064;-65
2022/09/22 15:22:50;;;;;;;0.30;0.15;;;25.00;38.90;;;;;;5922745;28;20060;-63
2022/09/22 15:25:54;;;;;;;0.28;0.28;;;25.00;38.90;;;;;;5890676;28;29529;-54
2022/09/22 15:29:00;;;;;;;0.30;0.20;;;24.90;38.90;;;;;;5920994;28;20793;-57
2022/09/22 15:32:05;;;;;;;0.20;0.20;;;25.00;39.00;;;;;;5874474;28;20042;-52
2022/09/22 15:35:08;;;;;;;0.40;0.30;;;24.70;38.80;;;;;;5880675;28;20050;-54
2022/09/22 15:38:16;;;;;;;0.47;0.20;;;25.00;39.10;;;;;;5939509;28;20603;-53
2022/09/22 15:41:18;;;;;;;0.43;0.20;;;25.00;38.90;;;;;;5907603;28;20171;-53
2022/09/22 15:44:20;;;;;;;0.30;0.30;;;24.90;38.90;;;;;;5923930;28;20042;-52
2022/09/22 15:47:22;;;;;;;0.57;0.20;;;24.90;38.90;;;;;;5938532;28;20058;-55
2022/09/22 15:50:28;;;;;;;2.38;0.20;;;25.00;38.90;;;;;;5939352;28;20061;-57
2022/09/22 15:53:30;;;;;;;0.45;0.30;;;25.00;39.00;;;;;;5919220;28;20038;-55
2022/09/22 15:56:32;;;;;;;0.30;0.20;;;24.70;38.80;;;;;;5921205;28;20038;-53
2022/09/22 15:59:35;;;;;;;0.50;0.20;;;24.80;38.80;;;;;;5930939;28;20050;-55
2022/09/22 16:02:39;;;;;;;0.20;0.20;;;24.70;38.80;;;;;;5966098;28;20041;-53
2022/09/22 16:05:45;;;;;;;0.10;0.10;;;24.80;38.90;;;;;;5970077;28;20156;-54
2022/09/22 16:08:50;;;;;;;0.43;0.20;;;24.90;39.00;;;;;;5972902;28;20042;-53
2022/09/22 16:11:52;;;;;;;0.10;0.10;;;24.90;39.10;;;;;;5952339;28;20042;-54
2022/09/22 16:14:54;;;;;;;0.50;0.22;;;24.60;38.90;;;;;;6000020;28;20038;-51
2022/09/22 16:17:56;;;;;;;0.43;0.25;;;24.70;39.00;;;;;;6006670;28;20053;-53
2022/09/22 16:21:03;;;;;;;0.10;0.10;;;24.70;39.00;;;;;;6047693;28;20060;-55
2022/09/22 16:24:08;;;;;;;1.48;0.20;;;24.80;39.10;;;;;;6035992;28;20080;-54
2022/09/22 16:27:09;;;;;;;1.13;0.50;;;24.90;39.20;;;;;;6018651;28;21419;-54
2022/09/22 16:30:11;;;;;;;1.05;0.60;;;24.70;39.10;;;;;;6035930;28;20247;-51
2022/09/22 16:33:14;;;;;;;0.60;0.40;;;24.90;39.40;;;;;;6058822;28;20034;-53
2022/09/22 16:36:18;;;;;;;0.57;0.30;;;24.80;39.30;;;;;;6052046;28;20446;-50